Time;durP1;ratioP1;P1;durP2;ratioP2;P2;SDS_P1;SDS_P2;PMS_P1;PMS_P2;Temp;Humidity;BMP_temperature;BMP_pressure;BME280_temperature;BME280_humidity;BME280_pressure;Samples;Min_cycle;Max_cycle;Signal;HPM_P1;HPM_P2
2023/03/26 00:01:58;;;;;;;;;;;;;;;7.16;78.61;99660.52;108893;1256;124563;-77
2023/03/26 00:04:26;;;;;;;;;;;;;;;7.20;78.61;99654.67;109051;1256;59163;-77
2023/03/26 00:06:54;;;;;;;;;;;;;;;7.26;78.56;99654.42;108920;1259;60393;-77
2023/03/26 00:09:21;;;;;;;;;;;;;;;7.31;78.51;99654.18;108767;1257;125880;-77
2023/03/26 00:11:48;;;;;;;;;;;;;;;7.34;78.34;99657.56;108835;1255;67579;-76
2023/03/26 00:14:17;;;;;;;;;;;;;;;7.39;78.45;99655.58;108754;1256;125268;-76
2023/03/26 00:16:46;;;;;;;;;;;;;;;7.44;78.40;99659.86;109048;1256;59987;-76
2023/03/26 00:19:13;;;;;;;;;;;;;;;7.49;78.37;99658.75;109011;1255;59968;-77
2023/03/26 00:21:40;;;;;;;;;;;;;;;7.54;78.28;99645.05;108912;1256;125075;-77
2023/03/26 00:24:08;;;;;;;;;;;;;;;7.59;78.22;99645.86;108883;1256;66328;-78
2023/03/26 00:26:36;;;;;;;;;;;;;;;7.64;78.20;99643.48;108775;1260;124943;-77
2023/03/26 00:29:03;;;;;;;;;;;;;;;7.69;78.12;99646.20;108231;1256;61080;-77
2023/03/26 00:31:30;;;;;;;;;;;;;;;7.72;78.00;99643.99;107763;1255;61382;-77
2023/03/26 00:33:58;;;;;;;;;;;;;;;7.73;78.03;99647.34;107755;1255;124626;-77
2023/03/26 00:36:25;;;;;;;;;;;;;;;7.76;78.05;99643.36;107853;1257;65861;-77
2023/03/26 00:38:52;;;;;;;;;;;;;;;7.78;78.02;99636.27;107796;1255;124669;-77
2023/03/26 00:41:24;;;;;;;;;;;;;;;7.78;77.94;99636.09;108012;1255;59923;-77
2023/03/26 00:43:52;;;;;;;;;;;;;;;7.81;77.95;99633.16;108129;1256;125205;-77
2023/03/26 00:46:19;;;;;;;;;;;;;;;7.84;77.87;99629.54;108194;1256;73189;-77
2023/03/26 00:48:46;;;;;;;;;;;;;;;7.84;77.89;99623.95;107833;1256;68676;-77
2023/03/26 00:51:16;;;;;;;;;;;;;;;7.82;77.81;99626.55;107706;1256;124960;-77
2023/03/26 00:53:44;;;;;;;;;;;;;;;7.78;77.71;99628.90;108770;1257;59391;-76
2023/03/26 00:56:11;;;;;;;;;;;;;;;7.74;77.74;99625.00;108671;1256;125151;-77
2023/03/26 00:58:38;;;;;;;;;;;;;;;7.73;77.74;99626.92;109073;1254;74971;-77
2023/03/26 01:01:06;;;;;;;;;;;;;;;7.69;77.79;99623.69;109188;1254;68194;-77
2023/03/26 01:03:34;;;;;;;;;;;;;;;7.67;77.80;99618.76;108925;1258;124745;-77
2023/03/26 01:06:03;;;;;;;;;;;;;;;7.67;77.78;99617.71;109022;1254;59310;-77
2023/03/26 01:08:31;;;;;;;;;;;;;;;7.65;77.83;99618.55;108976;1254;123824;-77
2023/03/26 01:11:05;;;;;;;;;;;;;;;7.64;77.82;99612.41;108922;1253;74654;-76
2023/03/26 01:13:34;;;;;;;;;;;;;;;7.62;77.76;99617.09;109056;1254;65883;-77
2023/03/26 01:16:01;;;;;;;;;;;;;;;7.58;77.83;99614.23;108997;1253;71144;-79
2023/03/26 01:18:32;;;;;;;;;;;;;;;7.56;77.81;99612.29;108990;1253;59347;-79
2023/03/26 01:21:04;;;;;;;;;;;;;;;7.51;77.78;99609.73;108950;1254;124225;-79
2023/03/26 01:23:36;;;;;;;;;;;;;;;7.46;77.80;99609.98;108124;1254;74860;-80
2023/03/26 01:26:06;;;;;;;;;;;;;;;7.40;77.84;99607.95;108017;1253;124716;-79
2023/03/26 01:28:33;;;;;;;;;;;;;;;7.33;77.91;99604.14;107953;1259;71544;-79
2023/03/26 01:31:05;;;;;;;;;;;;;;;7.30;78.15;99602.36;107979;1254;61346;-80
2023/03/26 01:33:42;;;;;;;;;;;;;;;7.31;78.19;99606.55;107672;1254;123706;-81
2023/03/26 01:36:09;;;;;;;;;;;;;;;7.29;78.25;99602.33;107841;1253;74661;-80
2023/03/26 01:38:45;;;;;;;;;;;;;;;7.29;78.25;99602.15;108953;1253;124891;-81
2023/03/26 01:41:12;;;;;;;;;;;;;;;7.26;78.22;99596.33;109162;1254;72146;-80
2023/03/26 01:43:58;;;;;;;;;;;;;;;7.22;78.16;99594.85;109013;1253;125207;-78
2023/03/26 01:46:24;;;;;;;;;;;;;;;7.15;78.18;99590.88;109100;1254;59560;-78
2023/03/26 01:48:52;;;;;;;;;;;;;;;7.09;78.11;99597.04;109077;1258;73484;-78
2023/03/26 01:51:26;;;;;;;;;;;;;;;7.03;78.26;99594.65;108921;1253;124736;-78
2023/03/26 01:53:53;;;;;;;;;;;;;;;7.00;78.34;99593.55;108905;1254;70401;-78
2023/03/26 01:56:39;;;;;;;;;;;;;;;6.98;78.45;99586.00;109035;1253;125165;-78
2023/03/26 01:59:16;;;;;;;;;;;;;;;6.96;78.55;99587.02;108447;1256;60603;-78
2023/03/26 02:02:06;;;;;;;;;;;;;;;6.98;78.62;99584.61;107912;1259;125056;-78
2023/03/26 02:04:33;;;;;;;;;;;;;;;6.94;78.54;99577.55;108063;1256;67122;-78
2023/03/26 02:07:19;;;;;;;;;;;;;;;6.88;78.41;99577.26;107701;1256;71212;-78
2023/03/26 02:09:48;;;;;;;;;;;;;;;6.84;78.49;99578.03;107599;1257;124796;-78
2023/03/26 02:12:15;;;;;;;;;;;;;;;6.81;78.65;99571.88;107902;1256;61138;-80
2023/03/26 02:14:42;;;;;;;;;;;;;;;6.81;78.61;99575.54;107678;1260;125051;-78
2023/03/26 02:17:10;;;;;;;;;;;;;;;6.79;78.63;99579.00;107917;1254;67065;-78
2023/03/26 02:19:41;;;;;;;;;;;;;;;6.80;78.82;99579.71;107857;1256;124716;-80
2023/03/26 02:22:10;;;;;;;;;;;;;;;6.84;78.96;99577.70;107828;1256;61070;-80
2023/03/26 02:24:37;;;;;;;;;;;;;;;6.87;78.98;99575.31;107755;1256;61148;-80
2023/03/26 02:27:06;;;;;;;;;;;;;;;6.90;79.13;99578.34;107818;1260;125290;-80
2023/03/26 02:29:36;;;;;;;;;;;;;;;6.98;79.22;99578.18;107970;1255;67427;-80
2023/03/26 02:32:04;;;;;;;;;;;;;;;7.05;79.16;99572.19;108801;1256;125562;-80
2023/03/26 02:34:31;;;;;;;;;;;;;;;7.09;79.17;99567.91;108937;1256;59453;-80
2023/03/26 02:36:58;;;;;;;;;;;;;;;7.13;79.12;99570.44;108932;1256;60764;-80
2023/03/26 02:39:25;;;;;;;;;;;;;;;7.11;78.91;99568.31;108786;1256;125276;-80
2023/03/26 02:41:52;;;;;;;;;;;;;;;7.07;78.85;99566.46;108900;1260;67086;-80
2023/03/26 02:44:19;;;;;;;;;;;;;;;7.06;78.88;99566.43;108854;1256;125390;-80
2023/03/26 02:46:46;;;;;;;;;;;;;;;7.08;79.09;99563.52;108881;1260;59335;-80
2023/03/26 02:49:13;;;;;;;;;;;;;;;7.13;79.10;99561.71;108926;1256;60147;-80
2023/03/26 02:51:40;;;;;;;;;;;;;;;7.16;79.08;99554.27;108876;1259;124717;-81
2023/03/26 02:54:07;;;;;;;;;;;;;;;7.21;79.13;99550.52;108892;1256;66351;-81
2023/03/26 02:56:34;;;;;;;;;;;;;;;7.26;79.13;99550.45;108841;1256;124969;-80
2023/03/26 02:59:01;;;;;;;;;;;;;;;7.31;79.15;99544.96;108814;1256;59191;-81
2023/03/26 03:01:33;;;;;;;;;;;;;;;7.34;79.11;99541.70;108919;1257;59262;-81
2023/03/26 03:04:02;;;;;;;;;;;;;;;7.38;79.14;99541.95;108949;1257;78252;-81
2023/03/26 03:06:31;;;;;;;;;;;;;;;7.42;79.15;99542.71;108949;1256;67074;-81
2023/03/26 03:08:58;;;;;;;;;;;;;;;7.45;79.03;99541.38;108877;1255;124709;-81
2023/03/26 03:11:25;;;;;;;;;;;;;;;7.50;79.16;99537.79;108978;1255;59142;-81
2023/03/26 03:13:52;;;;;;;;;;;;;;;7.54;79.08;99541.02;108887;1256;124769;-81
2023/03/26 03:16:19;;;;;;;;;;;;;;;7.58;79.04;99537.42;108958;1256;74805;-80
2023/03/26 03:18:52;;;;;;;;;;;;;;;7.64;79.05;99537.68;108910;1257;67065;-80
2023/03/26 03:21:20;;;;;;;;;;;;;;;7.64;78.92;99533.86;108903;1255;124965;-80
2023/03/26 03:23:47;;;;;;;;;;;;;;;7.63;78.84;99535.05;108998;1256;59571;-81
2023/03/26 03:26:14;;;;;;;;;;;;;;;7.64;78.87;99532.63;108840;1256;125433;-81
2023/03/26 03:28:41;;;;;;;;;;;;;;;7.65;78.90;99528.98;108924;1256;75139;-81
2023/03/26 03:31:08;;;;;;;;;;;;;;;7.70;79.02;99531.87;108996;1256;67550;-81
2023/03/26 03:33:35;;;;;;;;;;;;;;;7.73;78.99;99528.95;108524;1256;124934;-81
2023/03/26 03:36:09;;;;;;;;;;;;;;;7.75;79.01;99531.23;108016;1256;60903;-81
2023/03/26 03:38:36;;;;;;;;;;;;;;;7.76;79.00;99528.64;107825;1255;126978;-81
2023/03/26 03:41:03;;;;;;;;;;;;;;;7.79;78.93;99527.99;107639;1256;75056;-81
2023/03/26 03:43:31;;;;;;;;;;;;;;;7.79;78.95;99527.13;107550;1260;66768;-81
2023/03/26 03:45:58;;;;;;;;;;;;;;;7.82;79.00;99525.95;107625;1257;125173;-81
2023/03/26 03:48:26;;;;;;;;;;;;;;;7.85;79.00;99527.92;108006;1256;59599;-81
2023/03/26 03:50:54;;;;;;;;;;;;;;;7.88;79.01;99525.70;108219;1256;125077;-81
2023/03/26 03:53:25;;;;;;;;;;;;;;;7.89;78.92;99526.77;108222;1262;73405;-81
2023/03/26 03:55:53;;;;;;;;;;;;;;;7.88;78.90;99525.17;107727;1255;124791;-81
2023/03/26 03:58:21;;;;;;;;;;;;;;;7.89;78.84;99526.76;107881;1254;71376;-81
2023/03/26 04:00:48;;;;;;;;;;;;;;;7.89;78.85;99523.44;107802;1254;62021;-80
2023/03/26 04:03:15;;;;;;;;;;;;;;;7.90;78.85;99519.96;107683;1253;123945;-80
2023/03/26 04:05:48;;;;;;;;;;;;;;;7.92;78.87;99520.34;107681;1254;75120;-80
2023/03/26 04:08:15;;;;;;;;;;;;;;;7.91;78.87;99519.98;107753;1254;124669;-80
2023/03/26 04:10:43;;;;;;;;;;;;;;;7.90;78.82;99518.04;108141;1254;71403;-80
2023/03/26 04:13:11;;;;;;;;;;;;;;;7.88;78.79;99516.95;107872;1256;61008;-80
2023/03/26 04:15:38;;;;;;;;;;;;;;;7.85;78.84;99517.79;107703;1254;124601;-80
2023/03/26 04:18:09;;;;;;;;;;;;;;;7.83;78.93;99515.13;107892;1254;73533;-81
2023/03/26 04:20:37;;;;;;;;;;;;;;;7.83;79.05;99510.42;107634;1253;124311;-80
2023/03/26 04:23:04;;;;;;;;;;;;;;;7.85;79.07;99512.36;107951;1254;72723;-78
2023/03/26 04:25:32;;;;;;;;;;;;;;;7.85;79.16;99513.41;107862;1254;61132;-80
2023/03/26 04:28:00;;;;;;;;;;;;;;;7.87;79.14;99512.92;107660;1259;124427;-81
2023/03/26 04:30:27;;;;;;;;;;;;;;;7.87;79.18;99517.11;107504;1254;75301;-80
2023/03/26 04:32:57;;;;;;;;;;;;;;;7.87;79.18;99511.89;107487;1254;124704;-81
2023/03/26 04:35:24;;;;;;;;;;;;;;;7.87;79.22;99511.18;107692;1253;71234;-81
2023/03/26 04:37:51;;;;;;;;;;;;;;;7.87;79.22;99510.82;107982;1254;124584;-78
2023/03/26 04:40:19;;;;;;;;;;;;;;;7.87;79.33;99504.55;107889;1254;61254;-78
2023/03/26 04:42:46;;;;;;;;;;;;;;;7.86;79.31;99502.79;107580;1254;74675;-78
2023/03/26 04:45:14;;;;;;;;;;;;;;;7.82;79.36;99500.97;107781;1253;124611;-78
2023/03/26 04:47:41;;;;;;;;;;;;;;;7.80;79.35;99497.98;107742;1253;71378;-77
2023/03/26 04:50:09;;;;;;;;;;;;;;;7.79;79.37;99498.48;107777;1254;124573;-77
2023/03/26 04:52:36;;;;;;;;;;;;;;;7.79;79.43;99496.55;107955;1253;59663;-77
2023/03/26 04:55:05;;;;;;;;;;;;;;;7.80;79.52;99497.09;108101;1254;73660;-77
2023/03/26 04:57:36;;;;;;;;;;;;;;;7.81;79.59;99493.08;107782;1259;125384;-77
2023/03/26 05:00:12;;;;;;;;;;;;;;;7.82;79.60;99492.05;107760;1254;73216;-79
2023/03/26 05:02:44;;;;;;;;;;;;;;;7.82;79.68;99492.23;107884;1253;125071;-79
2023/03/26 05:05:12;;;;;;;;;;;;;;;7.82;79.71;99490.15;107891;1254;60492;-79
2023/03/26 05:07:40;;;;;;;;;;;;;;;7.85;79.78;99490.35;108142;1253;181006;-79
2023/03/26 05:10:07;;;;;;;;;;;;;;;7.89;79.92;99487.63;108107;1253;65297;-79
2023/03/26 05:12:34;;;;;;;;;;;;;;;7.95;79.94;99489.64;108083;1254;71414;-79
2023/03/26 05:15:04;;;;;;;;;;;;;;;8.01;79.97;99486.23;107773;1254;125163;-78
2023/03/26 05:17:33;;;;;;;;;;;;;;;8.09;79.95;99488.27;108237;1256;59570;-77
2023/03/26 05:20:00;;;;;;;;;;;;;;;8.16;79.99;99489.09;107975;1259;125025;-75
2023/03/26 05:22:27;;;;;;;;;;;;;;;8.21;79.85;99489.33;109037;1254;65751;-75
2023/03/26 05:24:55;;;;;;;;;;;;;;;8.25;79.81;99489.03;109153;1253;71425;-75
2023/03/26 05:27:22;;;;;;;;;;;;;;;8.25;79.58;99490.27;108813;1254;125663;-76
2023/03/26 05:29:49;;;;;;;;;;;;;;;8.26;79.47;99490.45;109245;1254;59276;-76
2023/03/26 05:32:16;;;;;;;;;;;;;;;8.28;79.37;99496.06;108884;1253;125000;-78
2023/03/26 05:34:42;;;;;;;;;;;;;;;8.31;79.24;99492.27;109182;1254;66234;-78
2023/03/26 05:37:09;;;;;;;;;;;;;;;8.37;79.31;99493.91;109008;1253;72662;-77
2023/03/26 05:39:36;;;;;;;;;;;;;;;8.45;79.24;99493.16;109032;1258;124532;-78
2023/03/26 05:42:06;;;;;;;;;;;;;;;8.54;79.22;99493.83;108989;1259;59364;-81
2023/03/26 05:44:33;;;;;;;;;;;;;;;8.64;79.18;99495.88;109012;1254;124541;-81
2023/03/26 05:47:03;;;;;;;;;;;;;;;8.75;79.10;99497.06;109038;1253;68452;-81
2023/03/26 05:49:31;;;;;;;;;;;;;;;8.83;79.03;99498.20;109008;1254;71391;-78
2023/03/26 05:51:58;;;;;;;;;;;;;;;8.90;78.90;99500.55;109115;1254;124871;-78
2023/03/26 05:54:25;;;;;;;;;;;;;;;8.96;78.75;99498.01;109202;1256;59165;-78
2023/03/26 05:56:52;;;;;;;;;;;;;;;9.02;78.49;99501.74;108432;1253;125195;-78
2023/03/26 05:59:19;;;;;;;;;;;;;;;9.06;78.22;99498.29;107793;1254;65717;-81
2023/03/26 06:01:46;;;;;;;;;;;;;;;9.14;78.05;99498.55;107842;1259;125454;-78
2023/03/26 06:04:14;;;;;;;;;;;;;;;9.26;78.03;99498.86;107951;1254;61142;-78
2023/03/26 06:06:41;;;;;;;;;;;;;;;9.42;77.82;99501.98;108065;1258;61251;-78
2023/03/26 06:09:10;;;;;;;;;;;;;;;9.59;77.70;99500.56;108109;1256;124782;-78
2023/03/26 06:11:37;;;;;;;;;;;;;;;9.80;77.53;99500.39;108087;1259;65998;-79
2023/03/26 06:14:05;;;;;;;;;;;;;;;9.97;77.33;99501.58;107557;1259;124714;-82
2023/03/26 06:16:32;;;;;;;;;;;;;;;10.14;76.86;99500.82;107482;1257;61314;-82
2023/03/26 06:18:59;;;;;;;;;;;;;;;10.26;76.61;99500.20;107559;1259;61369;-83
2023/03/26 06:21:27;;;;;;;;;;;;;;;10.40;76.33;99499.42;107646;1253;124528;-82
2023/03/26 06:23:54;;;;;;;;;;;;;;;10.53;75.97;99495.30;107464;1253;65662;-83
2023/03/26 06:26:21;;;;;;;;;;;;;;;10.59;75.43;99494.98;107560;1260;124497;-76
2023/03/26 06:28:48;;;;;;;;;;;;;;;10.62;75.17;99497.45;107952;1254;61205;-76
2023/03/26 06:31:17;;;;;;;;;;;;;;;10.65;74.78;99497.61;108056;1254;59998;-77
2023/03/26 06:33:45;;;;;;;;;;;;;;;10.62;74.50;99495.34;107554;1254;124663;-77
2023/03/26 06:36:12;;;;;;;;;;;;;;;10.61;74.40;99498.84;107447;1259;67192;-80
2023/03/26 06:38:40;;;;;;;;;;;;;;;10.60;74.11;99503.21;107845;1259;124363;-80
2023/03/26 06:41:07;;;;;;;;;;;;;;;10.57;74.01;99502.85;108622;1255;59819;-81
2023/03/26 06:43:35;;;;;;;;;;;;;;;10.55;73.94;99504.06;108258;1257;59882;-81
2023/03/26 06:46:03;;;;;;;;;;;;;;;10.52;73.83;99503.52;107984;1254;72366;-83
2023/03/26 06:48:30;;;;;;;;;;;;;;;10.52;73.86;99504.77;107563;1255;66964;-82
2023/03/26 06:50:57;;;;;;;;;;;;;;;10.52;73.82;99505.98;107413;1254;124311;-83
2023/03/26 06:53:24;;;;;;;;;;;;;;;10.53;73.81;99503.88;107774;1253;59448;-83
2023/03/26 06:55:52;;;;;;;;;;;;;;;10.53;73.71;99502.65;107680;1254;124204;-82
2023/03/26 06:58:21;;;;;;;;;;;;;;;10.50;73.57;99504.56;107839;1259;73449;-82
2023/03/26 07:00:51;;;;;;;;;;;;;;;10.44;73.32;99506.46;107962;1262;67760;-80
2023/03/26 07:03:18;;;;;;;;;;;;;;;10.38;73.35;99510.11;107669;1258;125091;-81
2023/03/26 07:05:45;;;;;;;;;;;;;;;10.35;73.23;99509.73;107601;1257;61052;-81
2023/03/26 07:08:12;;;;;;;;;;;;;;;10.32;73.34;99509.20;107482;1257;125956;-81
2023/03/26 07:10:39;;;;;;;;;;;;;;;10.30;73.29;99510.59;107588;1260;75184;-81
2023/03/26 07:13:06;;;;;;;;;;;;;;;10.28;73.26;99511.60;107755;1258;66534;-81
2023/03/26 07:15:33;;;;;;;;;;;;;;;10.31;73.30;99513.92;108877;1255;124978;-81
2023/03/26 07:18:00;;;;;;;;;;;;;;;10.31;73.22;99513.41;108995;1257;59703;-82
2023/03/26 07:20:27;;;;;;;;;;;;;;;10.37;73.35;99515.72;107936;1257;124979;-81
2023/03/26 07:22:54;;;;;;;;;;;;;;;10.42;73.25;99518.56;107780;1259;74411;-82
2023/03/26 07:25:22;;;;;;;;;;;;;;;10.48;73.22;99518.06;107539;1260;67058;-82
2023/03/26 07:27:58;;;;;;;;;;;;;;;10.57;73.20;99522.50;107405;1257;125560;-81
2023/03/26 07:30:25;;;;;;;;;;;;;;;10.65;72.95;99519.38;107728;1259;61331;-81
2023/03/26 07:33:01;;;;;;;;;;;;;;;10.73;72.79;99522.58;107241;1260;124905;-84
2023/03/26 07:35:32;;;;;;;;;;;;;;;10.82;72.67;99526.83;107500;1260;74461;-84
2023/03/26 07:38:06;;;;;;;;;;;;;;;10.95;72.66;99524.95;108820;1258;125749;-78
2023/03/26 07:40:43;;;;;;;;;;;;;;;11.06;72.57;99524.98;108295;1256;72521;-87
2023/03/26 07:43:13;;;;;;;;;;;;;;;11.05;72.06;99526.03;107543;1257;60052;-83
2023/03/26 07:45:41;;;;;;;;;;;;;;;11.00;71.96;99526.55;107742;1259;125170;-83
2023/03/26 07:48:14;;;;;;;;;;;;;;;10.94;71.98;99530.20;107912;1259;74739;-79
2023/03/26 07:50:41;;;;;;;;;;;;;;;10.91;71.95;99526.87;107558;1262;125065;-77
2023/03/26 07:53:08;;;;;;;;;;;;;;;10.92;71.84;99529.33;107482;1256;71406;-77
2023/03/26 07:55:37;;;;;;;;;;;;;;;10.92;71.73;99529.49;107983;1257;124857;-80
2023/03/26 07:58:23;;;;;;;;;;;;;;;10.93;71.57;99531.25;107978;1258;61021;-78
2023/03/26 08:00:58;;;;;;;;;;;;;;;10.91;71.25;99526.69;107934;1258;73207;-82
2023/03/26 08:03:43;;;;;;;;;;;;;;;10.94;71.35;99530.56;107951;1259;124160;-82
2023/03/26 08:06:29;;;;;;;;;;;;;;;10.96;71.14;99532.67;107783;1257;73205;-81
2023/03/26 08:08:59;;;;;;;;;;;;;;;10.93;71.07;99530.38;107702;1260;125137;-82
2023/03/26 08:11:26;;;;;;;;;;;;;;;10.90;70.92;99529.48;108112;1255;60375;-84
2023/03/26 08:13:56;;;;;;;;;;;;;;;10.84;70.75;99530.52;108847;1257;124778;-85
2023/03/26 08:16:35;;;;;;;;;;;;;;;10.84;70.72;99533.50;107523;1256;65512;-84
2023/03/26 08:19:09;;;;;;;;;;;;;;;10.91;70.80;99536.70;107445;1261;71401;-83
2023/03/26 08:22:00;;;;;;;;;;;;;;;11.05;70.76;99539.02;107870;1257;124750;-85
2023/03/26 08:24:42;;;;;;;;;;;;;;;11.27;70.85;99536.29;107525;1257;61247;-83
2023/03/26 08:27:20;;;;;;;;;;;;;;;11.55;70.54;99536.52;107717;1257;124983;-83
2023/03/26 08:29:48;;;;;;;;;;;;;;;11.70;69.95;99540.40;107394;1256;66863;-84
2023/03/26 08:32:17;;;;;;;;;;;;;;;11.88;69.91;99536.20;107308;1257;124247;-84
2023/03/26 08:34:51;;;;;;;;;;;;;;;12.07;69.74;99538.17;107575;1256;61179;-84
2023/03/26 08:37:18;;;;;;;;;;;;;;;12.21;69.23;99543.43;107457;1255;60097;-83
2023/03/26 08:39:45;;;;;;;;;;;;;;;12.34;68.88;99539.53;107291;1259;124183;-81
2023/03/26 08:42:15;;;;;;;;;;;;;;;12.52;68.81;99539.68;107730;1257;66857;-82
2023/03/26 08:45:02;;;;;;;;;;;;;;;12.71;68.69;99541.04;107512;1257;124218;-80
2023/03/26 08:47:54;;;;;;;;;;;;;;;12.81;68.14;99538.35;107358;1257;61193;-79
2023/03/26 08:50:30;;;;;;;;;;;;;;;12.90;67.98;99540.27;107624;1257;124480;-80
2023/03/26 08:53:18;;;;;;;;;;;;;;;12.98;67.57;99535.65;107513;1260;74714;-80
2023/03/26 08:56:06;;;;;;;;;;;;;;;13.03;67.36;99541.27;107390;1259;124776;-80
2023/03/26 08:58:46;;;;;;;;;;;;;;;13.08;67.08;99543.88;107447;1254;72107;-82
2023/03/26 09:01:22;;;;;;;;;;;;;;;13.19;67.05;99538.71;107776;1254;61219;-80
2023/03/26 09:03:52;;;;;;;;;;;;;;;13.29;66.69;99539.91;107816;1253;125979;-82
2023/03/26 09:06:27;;;;;;;;;;;;;;;13.29;66.30;99535.14;108083;1253;74530;-83
2023/03/26 09:09:00;;;;;;;;;;;;;;;13.36;66.37;99537.96;107336;1258;124530;-83
2023/03/26 09:11:34;;;;;;;;;;;;;;;13.46;65.98;99541.42;107735;1258;72709;-81
2023/03/26 09:14:07;;;;;;;;;;;;;;;13.47;65.64;99539.30;108212;1253;124416;-82
2023/03/26 09:16:43;;;;;;;;;;;;;;;13.48;65.59;99541.23;108005;1254;60187;-85
2023/03/26 09:19:18;;;;;;;;;;;;;;;13.60;65.45;99541.52;107508;1254;74286;-86
2023/03/26 09:21:56;;;;;;;;;;;;;;;13.74;65.41;99541.23;107459;1254;124192;-81
2023/03/26 09:24:36;;;;;;;;;;;;;;;13.88;65.40;99537.43;107872;1254;73133;-81
2023/03/26 09:27:06;;;;;;;;;;;;;;;14.09;65.07;99540.26;108955;1254;124253;-83
2023/03/26 09:29:35;;;;;;;;;;;;;;;14.31;64.98;99544.64;108280;1254;62188;-84
2023/03/26 09:32:05;;;;;;;;;;;;;;;14.45;64.58;99545.73;108198;1254;124227;-84
2023/03/26 09:34:40;;;;;;;;;;;;;;;14.49;64.15;99543.59;108057;1255;66935;-85
2023/03/26 09:37:23;;;;;;;;;;;;;;;14.43;63.83;99542.23;107989;1254;72983;-80
2023/03/26 09:40:04;;;;;;;;;;;;;;;14.28;63.33;99541.14;107917;1254;172923;-85
2023/03/26 09:42:42;;;;;;;;;;;;;;;14.18;63.39;99547.59;107559;1259;60066;-85
2023/03/26 09:45:19;;;;;;;;;;;;;;;14.14;63.34;99551.31;107543;1260;124119;-82
2023/03/26 09:48:06;;;;;;;;;;;;;;;14.09;63.33;99550.84;107826;1254;65893;-80
2023/03/26 09:50:49;;;;;;;;;;;;;;;14.15;63.49;99548.66;107527;1254;124919;-86
2023/03/26 09:53:26;;;;;;;;;;;;;;;14.27;63.18;99554.92;107792;1254;61260;-81
2023/03/26 09:55:53;;;;;;;;;;;;;;;14.32;62.86;99550.45;107394;1254;124352;-84
2023/03/26 09:58:46;;;;;;;;;;;;;;;14.40;62.74;99554.98;108335;1254;76308;-84
2023/03/26 10:01:17;;;;;;;;;;;;;;;14.50;62.80;99556.64;107546;1254;65483;-86
2023/03/26 10:03:47;;;;;;;;;;;;;;;14.57;62.60;99556.59;107481;1254;124202;-88
2023/03/26 10:06:19;;;;;;;;;;;;;;;14.48;61.91;99557.36;107631;1254;59981;-83
2023/03/26 10:08:49;;;;;;;;;;;;;;;14.20;61.72;99561.85;107581;1254;124104;-82
2023/03/26 10:11:17;;;;;;;;;;;;;;;13.90;61.56;99564.57;107811;1254;73634;-83
2023/03/26 10:14:04;;;;;;;;;;;;;;;13.64;62.17;99567.21;107851;1254;124243;-83
2023/03/26 10:16:56;;;;;;;;;;;;;;;13.69;62.83;99570.19;107829;1254;72432;-82
2023/03/26 10:19:30;;;;;;;;;;;;;;;13.84;62.80;99572.38;107525;1254;61337;-82
2023/03/26 10:22:16;;;;;;;;;;;;;;;14.03;62.83;99570.64;107481;1254;124331;-84
2023/03/26 10:25:04;;;;;;;;;;;;;;;14.20;62.62;99570.68;107820;1254;75330;-82
2023/03/26 10:27:51;;;;;;;;;;;;;;;14.26;62.18;99567.44;107494;1254;125500;-85
2023/03/26 10:30:19;;;;;;;;;;;;;;;14.06;62.00;99564.61;107566;1254;71091;-85
2023/03/26 10:32:51;;;;;;;;;;;;;;;14.12;62.26;99573.04;107477;1254;124281;-82
2023/03/26 10:35:18;;;;;;;;;;;;;;;14.25;62.24;99573.27;107490;1254;60922;-82
2023/03/26 10:38:03;;;;;;;;;;;;;;;14.29;61.34;99574.13;107643;1254;124337;-83
2023/03/26 10:41:05;;;;;;;;;;;;;;;14.12;61.30;99574.80;107727;1254;67617;-85
2023/03/26 10:43:41;;;;;;;;;;;;;;;13.91;60.81;99576.73;107012;1263;71516;-83
2023/03/26 10:46:15;;;;;;;;;;;;;;;13.67;60.90;99576.73;106642;1263;61272;-83
2023/03/26 10:48:43;;;;;;;;;;;;;;;13.42;60.85;99570.70;106798;1266;61490;-83
2023/03/26 10:51:16;;;;;;;;;;;;;;;13.24;61.14;99569.36;106870;1263;124191;-81
2023/03/26 10:53:47;;;;;;;;;;;;;;;13.17;61.51;99566.23;106896;1263;67096;-82
2023/03/26 10:56:14;;;;;;;;;;;;;;;13.15;61.42;99570.45;106826;1263;124581;-81
2023/03/26 10:58:41;;;;;;;;;;;;;;;12.96;60.48;99573.86;107107;1263;60597;-82
2023/03/26 11:01:14;;;;;;;;;;;;;;;12.64;60.41;99570.44;107268;1262;62194;-81
2023/03/26 11:03:54;;;;;;;;;;;;;;;12.48;60.97;99570.11;107263;1264;124882;-81
2023/03/26 11:06:40;;;;;;;;;;;;;;;12.52;61.26;99574.88;107351;1261;65971;-81
2023/03/26 11:09:22;;;;;;;;;;;;;;;12.59;61.18;99573.44;107452;1263;125066;-83
2023/03/26 11:12:08;;;;;;;;;;;;;;;12.78;61.31;99571.46;107319;1263;59659;-84
2023/03/26 11:14:46;;;;;;;;;;;;;;;12.96;61.12;99572.11;107385;1267;124106;-82
2023/03/26 11:17:19;;;;;;;;;;;;;;;12.96;60.66;99574.05;107502;1262;74740;-80
2023/03/26 11:19:46;;;;;;;;;;;;;;;12.91;60.71;99575.13;107507;1259;124278;-81
2023/03/26 11:22:27;;;;;;;;;;;;;;;12.89;60.71;99576.01;107844;1256;71409;-81
2023/03/26 11:24:56;;;;;;;;;;;;;;;12.86;60.50;99574.78;107730;1256;59961;-81
2023/03/26 11:27:26;;;;;;;;;;;;;;;12.86;60.20;99582.19;107841;1255;125136;-81
2023/03/26 11:30:03;;;;;;;;;;;;;;;12.96;60.33;99583.55;107438;1257;73158;-82
2023/03/26 11:32:43;;;;;;;;;;;;;;;13.30;60.49;99588.18;107451;1256;124163;-82
2023/03/26 11:35:25;;;;;;;;;;;;;;;13.43;59.87;99594.13;107502;1255;72701;-81
2023/03/26 11:37:52;;;;;;;;;;;;;;;13.30;59.65;99599.30;107723;1254;124285;-82
2023/03/26 11:40:23;;;;;;;;;;;;;;;13.21;59.69;99598.80;107852;1256;61122;-80
2023/03/26 11:42:50;;;;;;;;;;;;;;;13.00;59.51;99598.15;107438;1255;74421;-81
2023/03/26 11:45:21;;;;;;;;;;;;;;;12.78;59.56;99599.80;107425;1256;124186;-83
2023/03/26 11:47:58;;;;;;;;;;;;;;;12.60;59.64;99599.85;107586;1257;72456;-82
2023/03/26 11:50:28;;;;;;;;;;;;;;;12.47;59.79;99594.95;107546;1253;124710;-82
2023/03/26 11:53:02;;;;;;;;;;;;;;;12.34;59.62;99595.83;107812;1256;59962;-83
2023/03/26 11:55:29;;;;;;;;;;;;;;;12.26;60.01;99593.37;107651;1254;74729;-81
2023/03/26 11:57:57;;;;;;;;;;;;;;;12.29;59.83;99593.37;107607;1253;124418;-80
2023/03/26 12:00:26;;;;;;;;;;;;;;;12.29;60.10;99589.85;107691;1254;71160;-80
2023/03/26 12:02:57;;;;;;;;;;;;;;;12.39;60.11;99591.77;107371;1256;126667;-83
2023/03/26 12:05:30;;;;;;;;;;;;;;;12.55;60.08;99595.29;107492;1254;60027;-82
2023/03/26 12:07:58;;;;;;;;;;;;;;;12.55;59.96;99596.34;107383;1254;124759;-80
2023/03/26 12:10:45;;;;;;;;;;;;;;;12.51;59.80;99599.33;107732;1254;65806;-79
2023/03/26 12:13:31;;;;;;;;;;;;;;;12.56;60.39;99599.67;107868;1257;72718;-80
2023/03/26 12:16:00;;;;;;;;;;;;;;;12.81;61.14;99594.69;107917;1254;124059;-82
2023/03/26 12:18:27;;;;;;;;;;;;;;;13.15;61.53;99591.41;108061;1254;61317;-81
2023/03/26 12:21:19;;;;;;;;;;;;;;;13.53;61.66;99588.44;107914;1254;124088;-90
2023/03/26 12:23:55;;;;;;;;;;;;;;;13.78;61.07;99585.46;108156;1253;67619;-88
2023/03/26 12:26:41;;;;;;;;;;;;;;;13.75;60.52;99584.78;107864;1254;124937;-87
2023/03/26 12:29:15;;;;;;;;;;;;;;;13.65;60.44;99590.48;108344;1254;59235;-90
2023/03/26 12:31:43;;;;;;;;;;;;;;;13.54;60.05;99597.42;107825;1257;124222;-88
2023/03/26 12:34:15;;;;;;;;;;;;;;;13.54;59.94;99596.90;108188;1254;73294;-86
2023/03/26 12:37:08;;;;;;;;;;;;;;;13.57;59.75;99600.58;108090;1254;67264;-88
2023/03/26 12:39:41;;;;;;;;;;;;;;;13.48;59.04;99611.02;108207;1253;124563;-85
2023/03/26 12:42:29;;;;;;;;;;;;;;;13.00;57.97;99611.02;107994;1254;62268;-84
2023/03/26 12:44:56;;;;;;;;;;;;;;;12.50;58.43;99614.99;107916;1253;124495;-84
2023/03/26 12:47:30;;;;;;;;;;;;;;;12.24;58.71;99620.81;107844;1259;73833;-81
2023/03/26 12:49:57;;;;;;;;;;;;;;;12.05;59.01;99617.10;107786;1254;124702;-81
2023/03/26 12:52:29;;;;;;;;;;;;;;;11.92;59.29;99622.90;107969;1253;70719;-81
2023/03/26 12:55:01;;;;;;;;;;;;;;;11.95;59.68;99613.92;107948;1253;60185;-81
2023/03/26 12:57:37;;;;;;;;;;;;;;;12.07;59.81;99615.35;107788;1256;124837;-81
2023/03/26 13:00:20;;;;;;;;;;;;;;;12.21;59.75;99614.66;108075;1253;74589;-81